sensor_id;sensor_type;location;lat;lon;timestamp;temperature;humidity
41435;DHT22;27177;22.262;114.192;2023-02-24T01:41:25;17.30;99.90
41435;DHT22;27177;22.262;114.192;2023-02-24T01:44:06;17.40;99.90
41435;DHT22;27177;22.262;114.192;2023-02-24T01:46:36;17.50;99.90
41435;DHT22;27177;22.262;114.192;2023-02-24T01:49:14;17.50;99.90
41435;DHT22;27177;22.262;114.192;2023-02-24T01:51:45;17.60;99.90
41435;DHT22;27177;22.262;114.192;2023-02-24T01:54:14;17.60;99.90
41435;DHT22;27177;22.262;114.192;2023-02-24T01:56:41;17.60;99.90
41435;DHT22;27177;22.262;114.192;2023-02-24T01:59:08;17.70;99.90
41435;DHT22;27177;22.262;114.192;2023-02-24T02:01:35;17.70;99.90
41435;DHT22;27177;22.262;114.192;2023-02-24T02:04:10;17.80;99.90
41435;DHT22;27177;22.262;114.192;2023-02-24T02:06:37;17.90;99.90
41435;DHT22;27177;22.262;114.192;2023-02-24T02:09:04;17.90;99.90
41435;DHT22;27177;22.262;114.192;2023-02-24T02:11:32;18.00;99.90
41435;DHT22;27177;22.262;114.192;2023-02-24T02:13:58;18.10;99.90
41435;DHT22;27177;22.262;114.192;2023-02-24T02:18:55;18.30;99.90
41435;DHT22;27177;22.262;114.192;2023-02-24T02:42:16;18.70;99.90
41435;DHT22;27177;22.262;114.192;2023-02-24T02:44:48;18.80;99.90
41435;DHT22;27177;22.262;114.192;2023-02-24T02:50:37;18.90;99.90
41435;DHT22;27177;22.262;114.192;2023-02-24T02:53:13;18.90;99.90
41435;DHT22;27177;22.262;114.192;2023-02-24T02:55:48;19.00;99.90
41435;DHT22;27177;22.262;114.192;2023-02-24T02:58:21;18.90;99.90
41435;DHT22;27177;22.262;114.192;2023-02-24T03:00:55;19.00;99.90
41435;DHT22;27177;22.262;114.192;2023-02-24T03:03:30;19.00;99.90
41435;DHT22;27177;22.262;114.192;2023-02-24T03:06:06;19.10;99.90
41435;DHT22;27177;22.262;114.192;2023-02-24T03:08:35;19.10;99.90
41435;DHT22;27177;22.262;114.192;2023-02-24T03:11:03;19.20;99.90
41435;DHT22;27177;22.262;114.192;2023-02-24T03:13:33;19.30;99.90
41435;DHT22;27177;22.262;114.192;2023-02-24T03:16:02;19.30;99.90
41435;DHT22;27177;22.262;114.192;2023-02-24T03:18:32;19.30;99.90
41435;DHT22;27177;22.262;114.192;2023-02-24T03:21:06;19.40;99.90
41435;DHT22;27177;22.262;114.192;2023-02-24T03:23:48;19.40;99.90
41435;DHT22;27177;22.262;114.192;2023-02-24T03:26:18;19.40;99.90
41435;DHT22;27177;22.262;114.192;2023-02-24T03:29:01;19.50;99.90
41435;DHT22;27177;22.262;114.192;2023-02-24T03:31:43;19.50;99.90
41435;DHT22;27177;22.262;114.192;2023-02-24T03:34:20;19.50;99.90
41435;DHT22;27177;22.262;114.192;2023-02-24T03:36:48;19.50;99.90
41435;DHT22;27177;22.262;114.192;2023-02-24T03:39:17;19.60;99.90
41435;DHT22;27177;22.262;114.192;2023-02-24T03:41:54;19.70;99.90
41435;DHT22;27177;22.262;114.192;2023-02-24T03:44:30;19.70;99.90
41435;DHT22;27177;22.262;114.192;2023-02-24T03:49:29;19.80;99.90
41435;DHT22;27177;22.262;114.192;2023-02-24T04:36:30;20.70;99.90
41435;DHT22;27177;22.262;114.192;2023-02-24T04:39:00;20.70;99.90
41435;DHT22;27177;22.262;114.192;2023-02-24T04:41:26;20.70;99.90
41435;DHT22;27177;22.262;114.192;2023-02-24T04:43:52;20.70;99.90
41435;DHT22;27177;22.262;114.192;2023-02-24T04:46:19;20.80;99.90
41435;DHT22;27177;22.262;114.192;2023-02-24T04:48:45;20.90;99.90
41435;DHT22;27177;22.262;114.192;2023-02-24T04:51:12;20.90;99.90
41435;DHT22;27177;22.262;114.192;2023-02-24T04:53:41;21.00;99.90
41435;DHT22;27177;22.262;114.192;2023-02-24T04:56:08;21.00;99.90
41435;DHT22;27177;22.262;114.192;2023-02-24T04:58:35;20.90;99.90
41435;DHT22;27177;22.262;114.192;2023-02-24T05:19:13;21.20;99.90
41435;DHT22;27177;22.262;114.192;2023-02-24T05:28:03;21.30;99.90
41435;DHT22;27177;22.262;114.192;2023-02-24T05:30:30;21.30;99.90
41435;DHT22;27177;22.262;114.192;2023-02-24T05:32:56;21.30;99.90
41435;DHT22;27177;22.262;114.192;2023-02-24T05:35:23;21.40;99.90
41435;DHT22;27177;22.262;114.192;2023-02-24T05:37:49;21.40;99.90
41435;DHT22;27177;22.262;114.192;2023-02-24T05:40:19;21.40;99.90
41435;DHT22;27177;22.262;114.192;2023-02-24T05:42:48;21.30;99.90
41435;DHT22;27177;22.262;114.192;2023-02-24T05:45:16;21.20;99.90
41435;DHT22;27177;22.262;114.192;2023-02-24T05:47:43;21.20;99.90
41435;DHT22;27177;22.262;114.192;2023-02-24T05:50:12;21.20;99.90
41435;DHT22;27177;22.262;114.192;2023-02-24T05:52:38;21.20;99.90
41435;DHT22;27177;22.262;114.192;2023-02-24T05:55:05;21.20;99.90
41435;DHT22;27177;22.262;114.192;2023-02-24T06:10:29;21.30;99.90
41435;DHT22;27177;22.262;114.192;2023-02-24T06:12:56;21.20;99.90
41435;DHT22;27177;22.262;114.192;2023-02-24T06:15:23;21.20;99.90
41435;DHT22;27177;22.262;114.192;2023-02-24T06:17:49;21.10;99.90
41435;DHT22;27177;22.262;114.192;2023-02-24T06:20:15;21.30;99.90
41435;DHT22;27177;22.262;114.192;2023-02-24T06:22:42;21.30;99.90
41435;DHT22;27177;22.262;114.192;2023-02-24T06:25:08;21.30;99.90
41435;DHT22;27177;22.262;114.192;2023-02-24T06:27:36;21.40;99.90
41435;DHT22;27177;22.262;114.192;2023-02-24T06:30:03;21.30;99.90
41435;DHT22;27177;22.262;114.192;2023-02-24T06:32:34;21.30;99.90
41435;DHT22;27177;22.262;114.192;2023-02-24T06:35:01;21.30;99.90
41435;DHT22;27177;22.262;114.192;2023-02-24T06:37:27;21.40;99.90
41435;DHT22;27177;22.262;114.192;2023-02-24T06:39:54;21.40;99.90
41435;DHT22;27177;22.262;114.192;2023-02-24T06:42:22;21.40;99.90
41435;DHT22;27177;22.262;114.192;2023-02-24T06:44:49;21.40;99.90
41435;DHT22;27177;22.262;114.192;2023-02-24T06:47:15;21.40;99.90
41435;DHT22;27177;22.262;114.192;2023-02-24T06:49:44;21.40;99.90
41435;DHT22;27177;22.262;114.192;2023-02-24T06:52:10;21.50;99.90
41435;DHT22;27177;22.262;114.192;2023-02-24T06:54:42;21.50;99.90
41435;DHT22;27177;22.262;114.192;2023-02-24T06:57:09;21.50;99.90
41435;DHT22;27177;22.262;114.192;2023-02-24T06:59:37;21.50;99.90
41435;DHT22;27177;22.262;114.192;2023-02-24T07:02:04;21.50;99.90
41435;DHT22;27177;22.262;114.192;2023-02-24T07:04:32;21.50;99.90
41435;DHT22;27177;22.262;114.192;2023-02-24T07:07:08;21.50;99.90
41435;DHT22;27177;22.262;114.192;2023-02-24T07:09:37;21.60;99.90
41435;DHT22;27177;22.262;114.192;2023-02-24T07:12:03;21.60;99.90
41435;DHT22;27177;22.262;114.192;2023-02-24T07:14:30;21.60;99.90
41435;DHT22;27177;22.262;114.192;2023-02-24T07:16:56;21.60;99.90
41435;DHT22;27177;22.262;114.192;2023-02-24T07:20:03;21.60;99.90
41435;DHT22;27177;22.262;114.192;2023-02-24T07:22:49;21.60;99.90
41435;DHT22;27177;22.262;114.192;2023-02-24T07:25:32;21.60;99.90
41435;DHT22;27177;22.262;114.192;2023-02-24T07:27:59;21.60;99.90
41435;DHT22;27177;22.262;114.192;2023-02-24T07:30:29;21.60;99.90
41435;DHT22;27177;22.262;114.192;2023-02-24T07:33:00;21.60;99.90
41435;DHT22;27177;22.262;114.192;2023-02-24T07:35:30;21.60;99.90
41435;DHT22;27177;22.262;114.192;2023-02-24T07:37:56;21.50;99.90
41435;DHT22;27177;22.262;114.192;2023-02-24T07:40:27;21.50;99.90
41435;DHT22;27177;22.262;114.192;2023-02-24T07:42:54;21.50;99.90
41435;DHT22;27177;22.262;114.192;2023-02-24T07:45:22;21.50;99.90
41435;DHT22;27177;22.262;114.192;2023-02-24T07:47:49;21.50;99.90
41435;DHT22;27177;22.262;114.192;2023-02-24T07:50:15;21.50;99.90
41435;DHT22;27177;22.262;114.192;2023-02-24T07:52:46;21.50;99.90
41435;DHT22;27177;22.262;114.192;2023-02-24T07:55:15;21.50;99.90
41435;DHT22;27177;22.262;114.192;2023-02-24T07:57:45;21.50;99.90
41435;DHT22;27177;22.262;114.192;2023-02-24T08:00:14;21.40;99.90
41435;DHT22;27177;22.262;114.192;2023-02-24T08:02:45;21.40;99.90
41435;DHT22;27177;22.262;114.192;2023-02-24T08:05:11;21.40;99.90
41435;DHT22;27177;22.262;114.192;2023-02-24T08:07:37;21.40;99.90
41435;DHT22;27177;22.262;114.192;2023-02-24T08:10:05;21.40;99.90
41435;DHT22;27177;22.262;114.192;2023-02-24T08:12:39;21.40;99.90
41435;DHT22;27177;22.262;114.192;2023-02-24T08:15:25;21.30;99.90
41435;DHT22;27177;22.262;114.192;2023-02-24T08:18:05;21.20;99.90
41435;DHT22;27177;22.262;114.192;2023-02-24T08:20:37;21.10;99.90
41435;DHT22;27177;22.262;114.192;2023-02-24T08:25:52;20.90;99.90
41435;DHT22;27177;22.262;114.192;2023-02-24T08:28:38;20.80;99.90
41435;DHT22;27177;22.262;114.192;2023-02-24T08:31:05;20.70;99.90
41435;DHT22;27177;22.262;114.192;2023-02-24T08:33:31;20.60;99.90
41435;DHT22;27177;22.262;114.192;2023-02-24T08:35:59;20.60;99.90
41435;DHT22;27177;22.262;114.192;2023-02-24T08:38:30;20.50;99.90
41435;DHT22;27177;22.262;114.192;2023-02-24T08:41:05;20.50;99.90
41435;DHT22;27177;22.262;114.192;2023-02-24T08:43:36;20.40;99.90
41435;DHT22;27177;22.262;114.192;2023-02-24T08:48:45;20.40;99.90
41435;DHT22;27177;22.262;114.192;2023-02-24T08:51:16;20.40;99.90
41435;DHT22;27177;22.262;114.192;2023-02-24T08:53:50;20.30;99.90
41435;DHT22;27177;22.262;114.192;2023-02-24T08:56:21;20.30;99.90
41435;DHT22;27177;22.262;114.192;2023-02-24T08:59:00;20.30;99.90
41435;DHT22;27177;22.262;114.192;2023-02-24T09:01:36;20.20;99.90
41435;DHT22;27177;22.262;114.192;2023-02-24T09:04:10;20.20;99.90
41435;DHT22;27177;22.262;114.192;2023-02-24T09:06:47;20.10;99.90
41435;DHT22;27177;22.262;114.192;2023-02-24T09:09:18;20.10;99.90
41435;DHT22;27177;22.262;114.192;2023-02-24T09:11:51;20.10;99.90
41435;DHT22;27177;22.262;114.192;2023-02-24T09:32:28;19.80;99.90
41435;DHT22;27177;22.262;114.192;2023-02-24T09:45:20;19.70;99.90
41435;DHT22;27177;22.262;114.192;2023-02-24T09:47:58;19.70;99.90
41435;DHT22;27177;22.262;114.192;2023-02-24T09:50:30;19.60;99.90
41435;DHT22;27177;22.262;114.192;2023-02-24T09:56:27;19.60;99.90
41435;DHT22;27177;22.262;114.192;2023-02-24T10:01:36;19.60;99.90
41435;DHT22;27177;22.262;114.192;2023-02-24T10:06:39;19.50;99.90
41435;DHT22;27177;22.262;114.192;2023-02-24T10:09:12;19.50;99.90
41435;DHT22;27177;22.262;114.192;2023-02-24T10:11:47;19.40;99.90
41435;DHT22;27177;22.262;114.192;2023-02-24T10:17:09;19.30;99.90
41435;DHT22;27177;22.262;114.192;2023-02-24T10:19:50;19.20;99.90
41435;DHT22;27177;22.262;114.192;2023-02-24T10:22:27;19.10;99.90
41435;DHT22;27177;22.262;114.192;2023-02-24T10:35:42;18.90;99.90
41435;DHT22;27177;22.262;114.192;2023-02-24T10:38:08;18.90;99.90
41435;DHT22;27177;22.262;114.192;2023-02-24T10:40:45;18.80;99.90
41435;DHT22;27177;22.262;114.192;2023-02-24T10:43:16;18.80;99.90
41435;DHT22;27177;22.262;114.192;2023-02-24T10:45:49;18.70;99.90
41435;DHT22;27177;22.262;114.192;2023-02-24T10:48:31;18.70;99.90
41435;DHT22;27177;22.262;114.192;2023-02-24T10:51:11;18.70;99.90
41435;DHT22;27177;22.262;114.192;2023-02-24T10:53:47;18.70;99.90
41435;DHT22;27177;22.262;114.192;2023-02-24T10:56:38;18.70;99.90
41435;DHT22;27177;22.262;114.192;2023-02-24T10:59:11;18.60;99.90
41435;DHT22;27177;22.262;114.192;2023-02-24T11:01:59;18.60;99.90
41435;DHT22;27177;22.262;114.192;2023-02-24T11:04:32;18.60;99.90
41435;DHT22;27177;22.262;114.192;2023-02-24T11:07:13;18.60;99.90
41435;DHT22;27177;22.262;114.192;2023-02-24T11:10:08;18.60;99.90
41435;DHT22;27177;22.262;114.192;2023-02-24T11:12:43;18.60;99.90
41435;DHT22;27177;22.262;114.192;2023-02-24T11:15:33;18.60;99.90
41435;DHT22;27177;22.262;114.192;2023-02-24T11:18:26;18.60;99.90
41435;DHT22;27177;22.262;114.192;2023-02-24T11:20:54;18.60;99.90
41435;DHT22;27177;22.262;114.192;2023-02-24T11:23:26;18.70;99.90
41435;DHT22;27177;22.262;114.192;2023-02-24T11:25:57;18.70;99.90
41435;DHT22;27177;22.262;114.192;2023-02-24T11:31:33;18.70;99.90
41435;DHT22;27177;22.262;114.192;2023-02-24T11:33:45;18.70;99.90
41435;DHT22;27177;22.262;114.192;2023-02-24T11:42:01;18.70;99.90
41435;DHT22;27177;22.262;114.192;2023-02-24T11:44:14;18.60;99.90
41435;DHT22;27177;22.262;114.192;2023-02-24T11:46:51;18.60;99.90
41435;DHT22;27177;22.262;114.192;2023-02-24T11:51:47;18.60;99.90
41435;DHT22;27177;22.262;114.192;2023-02-24T11:54:14;18.60;99.90
41435;DHT22;27177;22.262;114.192;2023-02-24T11:56:46;18.70;99.90
41435;DHT22;27177;22.262;114.192;2023-02-24T12:09:29;18.80;99.90
41435;DHT22;27177;22.262;114.192;2023-02-24T12:12:02;18.90;99.90
41435;DHT22;27177;22.262;114.192;2023-02-24T12:15:12;18.90;99.90
41435;DHT22;27177;22.262;114.192;2023-02-24T12:17:30;18.90;99.90
41435;DHT22;27177;22.262;114.192;2023-02-24T12:20:02;19.00;99.90
41435;DHT22;27177;22.262;114.192;2023-02-24T12:22:39;19.10;99.90
41435;DHT22;27177;22.262;114.192;2023-02-24T12:25:11;19.20;99.90
41435;DHT22;27177;22.262;114.192;2023-02-24T12:28:23;19.40;99.90
41435;DHT22;27177;22.262;114.192;2023-02-24T12:30:51;19.40;99.90
41435;DHT22;27177;22.262;114.192;2023-02-24T12:35:57;19.60;99.90
41435;DHT22;27177;22.262;114.192;2023-02-24T12:46:31;19.80;99.90
41435;DHT22;27177;22.262;114.192;2023-02-24T12:54:04;19.60;99.90
41435;DHT22;27177;22.262;114.192;2023-02-24T12:56:40;19.60;99.90
41435;DHT22;27177;22.262;114.192;2023-02-24T12:59:11;19.60;99.90
41435;DHT22;27177;22.262;114.192;2023-02-24T13:01:47;19.50;99.90
41435;DHT22;27177;22.262;114.192;2023-02-24T13:04:28;19.60;99.90
41435;DHT22;27177;22.262;114.192;2023-02-24T13:07:11;19.70;99.90
41435;DHT22;27177;22.262;114.192;2023-02-24T13:12:12;19.80;99.90
41435;DHT22;27177;22.262;114.192;2023-02-24T13:14:41;19.80;99.90
41435;DHT22;27177;22.262;114.192;2023-02-24T13:19:34;19.80;99.90
41435;DHT22;27177;22.262;114.192;2023-02-24T13:22:03;19.70;99.90
41435;DHT22;27177;22.262;114.192;2023-02-24T13:24:30;19.70;99.90
41435;DHT22;27177;22.262;114.192;2023-02-24T13:34:57;19.70;99.90
41435;DHT22;27177;22.262;114.192;2023-02-24T13:37:28;19.60;99.90
41435;DHT22;27177;22.262;114.192;2023-02-24T13:39:54;19.60;99.90
41435;DHT22;27177;22.262;114.192;2023-02-24T13:42:28;19.60;99.90
41435;DHT22;27177;22.262;114.192;2023-02-24T13:45:03;19.50;99.90
41435;DHT22;27177;22.262;114.192;2023-02-24T13:50:21;19.50;99.90
41435;DHT22;27177;22.262;114.192;2023-02-24T14:03:09;19.20;99.90
41435;DHT22;27177;22.262;114.192;2023-02-24T14:05:36;19.20;99.90
41435;DHT22;27177;22.262;114.192;2023-02-24T14:08:06;19.20;99.90
41435;DHT22;27177;22.262;114.192;2023-02-24T14:10:33;19.20;99.90
41435;DHT22;27177;22.262;114.192;2023-02-24T14:15:29;19.20;99.90
41435;DHT22;27177;22.262;114.192;2023-02-24T14:17:57;19.20;99.90
41435;DHT22;27177;22.262;114.192;2023-02-24T14:20:25;19.10;99.90
41435;DHT22;27177;22.262;114.192;2023-02-24T14:22:52;19.10;99.90
41435;DHT22;27177;22.262;114.192;2023-02-24T14:25:20;19.10;99.90
41435;DHT22;27177;22.262;114.192;2023-02-24T14:27:50;19.00;99.90
41435;DHT22;27177;22.262;114.192;2023-02-24T14:33:02;18.90;99.90
41435;DHT22;27177;22.262;114.192;2023-02-24T14:37:55;18.90;99.90
41435;DHT22;27177;22.262;114.192;2023-02-24T14:40:22;18.90;99.90
41435;DHT22;27177;22.262;114.192;2023-02-24T14:42:51;18.90;99.90
41435;DHT22;27177;22.262;114.192;2023-02-24T14:45:20;18.80;99.90
41435;DHT22;27177;22.262;114.192;2023-02-24T14:47:46;18.80;99.90
41435;DHT22;27177;22.262;114.192;2023-02-24T14:50:17;18.70;99.90
41435;DHT22;27177;22.262;114.192;2023-02-24T14:52:47;18.70;99.90
41435;DHT22;27177;22.262;114.192;2023-02-24T14:55:20;18.70;99.90
41435;DHT22;27177;22.262;114.192;2023-02-24T14:57:51;18.70;99.90
41435;DHT22;27177;22.262;114.192;2023-02-24T15:00:24;18.60;99.90
41435;DHT22;27177;22.262;114.192;2023-02-24T15:05:44;18.50;99.90
41435;DHT22;27177;22.262;114.192;2023-02-24T15:08:15;18.50;99.90
41435;DHT22;27177;22.262;114.192;2023-02-24T15:10:46;18.50;99.90
41435;DHT22;27177;22.262;114.192;2023-02-24T15:16:00;18.40;99.90
41435;DHT22;27177;22.262;114.192;2023-02-24T15:18:27;18.30;99.90
41435;DHT22;27177;22.262;114.192;2023-02-24T15:21:01;18.30;99.90
41435;DHT22;27177;22.262;114.192;2023-02-24T15:23:30;18.30;99.90
41435;DHT22;27177;22.262;114.192;2023-02-24T15:25:57;18.30;99.90
41435;DHT22;27177;22.262;114.192;2023-02-24T15:28:44;18.20;99.90
41435;DHT22;27177;22.262;114.192;2023-02-24T15:31:16;18.20;99.90
41435;DHT22;27177;22.262;114.192;2023-02-24T15:33:44;18.20;99.90
41435;DHT22;27177;22.262;114.192;2023-02-24T15:36:17;18.10;99.90
41435;DHT22;27177;22.262;114.192;2023-02-24T15:38:45;18.20;99.90
41435;DHT22;27177;22.262;114.192;2023-02-24T15:41:12;18.10;99.90
41435;DHT22;27177;22.262;114.192;2023-02-24T15:46:14;18.10;99.90
41435;DHT22;27177;22.262;114.192;2023-02-24T15:48:41;18.00;99.90
41435;DHT22;27177;22.262;114.192;2023-02-24T15:51:09;18.00;99.90
41435;DHT22;27177;22.262;114.192;2023-02-24T15:53:43;18.00;99.90
41435;DHT22;27177;22.262;114.192;2023-02-24T15:56:09;17.90;99.90
41435;DHT22;27177;22.262;114.192;2023-02-24T15:58:35;17.90;99.90
41435;DHT22;27177;22.262;114.192;2023-02-24T16:01:03;17.90;99.90
41435;DHT22;27177;22.262;114.192;2023-02-24T16:03:29;17.80;99.90
41435;DHT22;27177;22.262;114.192;2023-02-24T16:05:57;17.80;99.90
41435;DHT22;27177;22.262;114.192;2023-02-24T16:08:23;17.80;99.90
41435;DHT22;27177;22.262;114.192;2023-02-24T16:10:49;17.80;99.90
41435;DHT22;27177;22.262;114.192;2023-02-24T16:13:19;17.80;99.90
41435;DHT22;27177;22.262;114.192;2023-02-24T16:15:46;17.70;99.90
41435;DHT22;27177;22.262;114.192;2023-02-24T16:18:14;17.70;99.90
41435;DHT22;27177;22.262;114.192;2023-02-24T16:20:43;17.60;99.90
41435;DHT22;27177;22.262;114.192;2023-02-24T16:23:13;17.60;99.90
41435;DHT22;27177;22.262;114.192;2023-02-24T16:25:41;17.50;99.90
41435;DHT22;27177;22.262;114.192;2023-02-24T16:28:17;17.50;99.90
41435;DHT22;27177;22.262;114.192;2023-02-24T16:30:44;17.40;99.90
41435;DHT22;27177;22.262;114.192;2023-02-24T16:33:11;17.50;99.90
41435;DHT22;27177;22.262;114.192;2023-02-24T16:35:38;17.40;99.90
41435;DHT22;27177;22.262;114.192;2023-02-24T16:38:08;17.30;99.90
41435;DHT22;27177;22.262;114.192;2023-02-24T16:40:40;17.30;99.90
41435;DHT22;27177;22.262;114.192;2023-02-24T16:43:06;17.20;99.90
41435;DHT22;27177;22.262;114.192;2023-02-24T16:45:33;17.20;99.90
41435;DHT22;27177;22.262;114.192;2023-02-24T16:48:00;17.10;99.90
41435;DHT22;27177;22.262;114.192;2023-02-24T16:50:37;17.20;99.90
41435;DHT22;27177;22.262;114.192;2023-02-24T16:53:06;17.20;99.90
41435;DHT22;27177;22.262;114.192;2023-02-24T16:55:33;17.10;99.90
41435;DHT22;27177;22.262;114.192;2023-02-24T16:57:59;17.10;99.90
41435;DHT22;27177;22.262;114.192;2023-02-24T17:00:25;17.00;99.90
41435;DHT22;27177;22.262;114.192;2023-02-24T17:02:52;17.00;99.90
41435;DHT22;27177;22.262;114.192;2023-02-24T17:05:19;16.90;99.90
41435;DHT22;27177;22.262;114.192;2023-02-24T17:07:47;16.90;99.90
41435;DHT22;27177;22.262;114.192;2023-02-24T17:10:16;16.80;99.90
41435;DHT22;27177;22.262;114.192;2023-02-24T17:12:43;16.80;99.90
41435;DHT22;27177;22.262;114.192;2023-02-24T17:15:17;16.80;99.90
41435;DHT22;27177;22.262;114.192;2023-02-24T17:17:43;16.70;99.90
41435;DHT22;27177;22.262;114.192;2023-02-24T17:20:10;16.70;99.90
41435;DHT22;27177;22.262;114.192;2023-02-24T17:22:37;16.70;99.90
41435;DHT22;27177;22.262;114.192;2023-02-24T17:25:03;16.60;99.90
41435;DHT22;27177;22.262;114.192;2023-02-24T17:27:31;16.60;99.90
41435;DHT22;27177;22.262;114.192;2023-02-24T17:29:58;16.60;99.90
41435;DHT22;27177;22.262;114.192;2023-02-24T17:32:24;16.50;99.90
41435;DHT22;27177;22.262;114.192;2023-02-24T17:34:50;16.60;99.90
41435;DHT22;27177;22.262;114.192;2023-02-24T17:37:17;16.50;99.90
41435;DHT22;27177;22.262;114.192;2023-02-24T17:39:43;16.50;99.90
41435;DHT22;27177;22.262;114.192;2023-02-24T17:42:09;16.50;99.90
41435;DHT22;27177;22.262;114.192;2023-02-24T17:44:36;16.40;99.90
41435;DHT22;27177;22.262;114.192;2023-02-24T17:47:02;16.40;99.90
41435;DHT22;27177;22.262;114.192;2023-02-24T17:49:28;16.40;99.90
41435;DHT22;27177;22.262;114.192;2023-02-24T17:51:55;16.40;99.90
41435;DHT22;27177;22.262;114.192;2023-02-24T17:54:21;16.30;99.90
41435;DHT22;27177;22.262;114.192;2023-02-24T17:56:48;16.30;99.90
41435;DHT22;27177;22.262;114.192;2023-02-24T17:59:14;16.30;99.90
41435;DHT22;27177;22.262;114.192;2023-02-24T18:01:40;16.30;99.90
41435;DHT22;27177;22.262;114.192;2023-02-24T18:04:07;16.20;99.90
41435;DHT22;27177;22.262;114.192;2023-02-24T18:06:34;16.10;99.90
41435;DHT22;27177;22.262;114.192;2023-02-24T18:09:01;16.20;99.90
41435;DHT22;27177;22.262;114.192;2023-02-24T18:11:27;16.10;99.90
41435;DHT22;27177;22.262;114.192;2023-02-24T18:13:53;16.10;99.90
41435;DHT22;27177;22.262;114.192;2023-02-24T18:16:22;16.10;99.90
41435;DHT22;27177;22.262;114.192;2023-02-24T18:18:49;16.10;99.90
41435;DHT22;27177;22.262;114.192;2023-02-24T18:21:15;16.10;99.90
41435;DHT22;27177;22.262;114.192;2023-02-24T18:23:41;16.10;99.90
41435;DHT22;27177;22.262;114.192;2023-02-24T18:26:09;16.00;99.90
41435;DHT22;27177;22.262;114.192;2023-02-24T18:28:35;15.90;99.90
41435;DHT22;27177;22.262;114.192;2023-02-24T18:31:08;15.90;99.90
41435;DHT22;27177;22.262;114.192;2023-02-24T18:33:35;15.80;99.90
41435;DHT22;27177;22.262;114.192;2023-02-24T18:36:02;15.80;99.90
41435;DHT22;27177;22.262;114.192;2023-02-24T18:38:28;15.80;99.90
41435;DHT22;27177;22.262;114.192;2023-02-24T18:40:57;15.70;99.90
41435;DHT22;27177;22.262;114.192;2023-02-24T18:43:24;15.60;99.90
41435;DHT22;27177;22.262;114.192;2023-02-24T18:45:54;15.60;99.90
41435;DHT22;27177;22.262;114.192;2023-02-24T18:48:20;15.60;99.90
41435;DHT22;27177;22.262;114.192;2023-02-24T18:50:50;15.50;99.90
41435;DHT22;27177;22.262;114.192;2023-02-24T18:53:17;15.50;99.90
41435;DHT22;27177;22.262;114.192;2023-02-24T18:55:43;15.40;99.90
41435;DHT22;27177;22.262;114.192;2023-02-24T18:58:09;15.40;99.90
41435;DHT22;27177;22.262;114.192;2023-02-24T19:00:36;15.40;99.90
41435;DHT22;27177;22.262;114.192;2023-02-24T19:03:02;15.40;99.90
41435;DHT22;27177;22.262;114.192;2023-02-24T19:05:28;15.30;99.90
41435;DHT22;27177;22.262;114.192;2023-02-24T19:07:55;15.30;99.90
41435;DHT22;27177;22.262;114.192;2023-02-24T19:10:21;15.20;99.90
41435;DHT22;27177;22.262;114.192;2023-02-24T19:12:47;15.10;99.90
41435;DHT22;27177;22.262;114.192;2023-02-24T19:15:15;15.10;99.90
41435;DHT22;27177;22.262;114.192;2023-02-24T19:17:42;15.00;99.90
41435;DHT22;27177;22.262;114.192;2023-02-24T19:20:09;15.00;99.90
41435;DHT22;27177;22.262;114.192;2023-02-24T19:22:36;15.00;99.90
41435;DHT22;27177;22.262;114.192;2023-02-24T19:25:02;14.90;99.90
41435;DHT22;27177;22.262;114.192;2023-02-24T19:27:28;14.90;99.90
41435;DHT22;27177;22.262;114.192;2023-02-24T19:29:55;14.90;99.90
41435;DHT22;27177;22.262;114.192;2023-02-24T19:32:22;14.80;99.90
41435;DHT22;27177;22.262;114.192;2023-02-24T19:34:48;14.80;99.90
41435;DHT22;27177;22.262;114.192;2023-02-24T19:37:15;14.80;99.90
41435;DHT22;27177;22.262;114.192;2023-02-24T19:39:41;14.80;99.90
41435;DHT22;27177;22.262;114.192;2023-02-24T19:42:07;14.80;99.90
41435;DHT22;27177;22.262;114.192;2023-02-24T19:44:35;14.80;99.90
41435;DHT22;27177;22.262;114.192;2023-02-24T19:47:01;14.70;99.90
41435;DHT22;27177;22.262;114.192;2023-02-24T19:49:28;14.70;99.90
41435;DHT22;27177;22.262;114.192;2023-02-24T19:51:54;14.70;99.90
41435;DHT22;27177;22.262;114.192;2023-02-24T19:54:21;14.70;99.90
41435;DHT22;27177;22.262;114.192;2023-02-24T19:56:47;14.70;99.90
41435;DHT22;27177;22.262;114.192;2023-02-24T19:59:14;14.70;99.90
41435;DHT22;27177;22.262;114.192;2023-02-24T20:01:40;14.70;99.90
41435;DHT22;27177;22.262;114.192;2023-02-24T20:04:07;14.70;99.90
41435;DHT22;27177;22.262;114.192;2023-02-24T20:06:34;14.70;99.90
41435;DHT22;27177;22.262;114.192;2023-02-24T20:09:04;14.70;99.90
41435;DHT22;27177;22.262;114.192;2023-02-24T20:11:32;14.70;99.90
41435;DHT22;27177;22.262;114.192;2023-02-24T20:13:59;14.70;99.90
41435;DHT22;27177;22.262;114.192;2023-02-24T20:16:25;14.70;99.90
41435;DHT22;27177;22.262;114.192;2023-02-24T20:18:57;14.70;99.90
41435;DHT22;27177;22.262;114.192;2023-02-24T20:21:23;14.70;99.90
41435;DHT22;27177;22.262;114.192;2023-02-24T20:23:49;14.70;99.90
41435;DHT22;27177;22.262;114.192;2023-02-24T20:26:16;14.70;99.90
41435;DHT22;27177;22.262;114.192;2023-02-24T20:28:43;14.70;99.90
41435;DHT22;27177;22.262;114.192;2023-02-24T20:31:11;14.70;99.90
41435;DHT22;27177;22.262;114.192;2023-02-24T20:33:38;14.60;99.90
41435;DHT22;27177;22.262;114.192;2023-02-24T20:36:08;14.60;99.90
41435;DHT22;27177;22.262;114.192;2023-02-24T20:38:36;14.60;99.90
41435;DHT22;27177;22.262;114.192;2023-02-24T20:41:02;14.50;99.90
41435;DHT22;27177;22.262;114.192;2023-02-24T20:43:28;14.50;99.90
41435;DHT22;27177;22.262;114.192;2023-02-24T20:45:55;14.50;99.90
41435;DHT22;27177;22.262;114.192;2023-02-24T20:48:21;14.50;99.90
41435;DHT22;27177;22.262;114.192;2023-02-24T20:50:47;14.50;99.90
41435;DHT22;27177;22.262;114.192;2023-02-24T20:53:14;14.40;99.90
41435;DHT22;27177;22.262;114.192;2023-02-24T20:55:40;14.40;99.90
41435;DHT22;27177;22.262;114.192;2023-02-24T20:58:07;14.40;99.90
41435;DHT22;27177;22.262;114.192;2023-02-24T21:00:33;14.30;99.90
41435;DHT22;27177;22.262;114.192;2023-02-24T21:03:03;14.30;99.90
41435;DHT22;27177;22.262;114.192;2023-02-24T21:05:32;14.30;99.90